sensor_id;sensor_type;location;lat;lon;timestamp;temperature;humidity
52495;DHT22;38405;53.212;5.660;2024-02-04T00:01:02;6.90;99.90
52495;DHT22;38405;53.212;5.660;2024-02-04T00:03:28;6.60;99.90
52495;DHT22;38405;53.212;5.660;2024-02-04T00:05:54;6.40;99.90
52495;DHT22;38405;53.212;5.660;2024-02-04T00:08:19;6.50;99.90
52495;DHT22;38405;53.212;5.660;2024-02-04T00:10:45;6.80;99.90
52495;DHT22;38405;53.212;5.660;2024-02-04T00:13:11;6.40;99.90
52495;DHT22;38405;53.212;5.660;2024-02-04T00:15:36;6.50;99.90
52495;DHT22;38405;53.212;5.660;2024-02-04T00:18:02;6.40;99.90
52495;DHT22;38405;53.212;5.660;2024-02-04T00:20:28;6.40;99.90
52495;DHT22;38405;53.212;5.660;2024-02-04T00:22:54;6.40;99.90
52495;DHT22;38405;53.212;5.660;2024-02-04T00:25:20;6.30;99.90
52495;DHT22;38405;53.212;5.660;2024-02-04T00:27:45;6.30;99.90
52495;DHT22;38405;53.212;5.660;2024-02-04T00:30:11;6.40;99.90
52495;DHT22;38405;53.212;5.660;2024-02-04T00:32:37;6.40;99.90
52495;DHT22;38405;53.212;5.660;2024-02-04T00:35:03;6.40;99.90
52495;DHT22;38405;53.212;5.660;2024-02-04T00:37:28;6.40;99.90
52495;DHT22;38405;53.212;5.660;2024-02-04T00:39:54;6.30;99.90
52495;DHT22;38405;53.212;5.660;2024-02-04T00:42:19;6.30;99.90
52495;DHT22;38405;53.212;5.660;2024-02-04T00:44:45;6.30;99.90
52495;DHT22;38405;53.212;5.660;2024-02-04T00:47:11;6.30;99.90
52495;DHT22;38405;53.212;5.660;2024-02-04T00:49:36;6.20;99.90
52495;DHT22;38405;53.212;5.660;2024-02-04T00:52:02;6.70;99.90
52495;DHT22;38405;53.212;5.660;2024-02-04T00:54:28;6.30;99.90
52495;DHT22;38405;53.212;5.660;2024-02-04T00:56:53;6.30;99.90
52495;DHT22;38405;53.212;5.660;2024-02-04T00:59:19;6.50;99.90
52495;DHT22;38405;53.212;5.660;2024-02-04T01:01:45;6.50;99.90
52495;DHT22;38405;53.212;5.660;2024-02-04T01:04:10;6.40;99.90
52495;DHT22;38405;53.212;5.660;2024-02-04T01:06:37;6.40;99.90
52495;DHT22;38405;53.212;5.660;2024-02-04T01:09:02;6.30;99.90
52495;DHT22;38405;53.212;5.660;2024-02-04T01:11:28;6.80;99.90
52495;DHT22;38405;53.212;5.660;2024-02-04T01:13:54;6.40;99.90
52495;DHT22;38405;53.212;5.660;2024-02-04T01:16:20;6.40;99.90
52495;DHT22;38405;53.212;5.660;2024-02-04T01:18:46;6.40;99.90
52495;DHT22;38405;53.212;5.660;2024-02-04T01:21:11;6.40;99.90
52495;DHT22;38405;53.212;5.660;2024-02-04T01:23:37;6.30;99.90
52495;DHT22;38405;53.212;5.660;2024-02-04T01:26:02;6.30;99.90
52495;DHT22;38405;53.212;5.660;2024-02-04T01:28:28;6.30;99.90
52495;DHT22;38405;53.212;5.660;2024-02-04T01:30:54;6.40;99.90
52495;DHT22;38405;53.212;5.660;2024-02-04T01:33:19;6.50;99.90
52495;DHT22;38405;53.212;5.660;2024-02-04T01:35:45;6.50;99.90
52495;DHT22;38405;53.212;5.660;2024-02-04T01:38:10;6.50;99.90
52495;DHT22;38405;53.212;5.660;2024-02-04T01:40:36;6.50;99.90
52495;DHT22;38405;53.212;5.660;2024-02-04T01:43:02;6.40;99.90
52495;DHT22;38405;53.212;5.660;2024-02-04T01:45:27;6.50;99.90
52495;DHT22;38405;53.212;5.660;2024-02-04T01:47:54;6.60;99.90
52495;DHT22;38405;53.212;5.660;2024-02-04T01:50:20;6.40;99.90
52495;DHT22;38405;53.212;5.660;2024-02-04T01:52:46;6.60;99.90
52495;DHT22;38405;53.212;5.660;2024-02-04T01:55:13;6.40;99.90
52495;DHT22;38405;53.212;5.660;2024-02-04T01:57:39;6.40;99.90
52495;DHT22;38405;53.212;5.660;2024-02-04T02:00:05;6.70;99.90
52495;DHT22;38405;53.212;5.660;2024-02-04T02:02:32;6.40;99.90
52495;DHT22;38405;53.212;5.660;2024-02-04T02:04:59;6.60;99.90
52495;DHT22;38405;53.212;5.660;2024-02-04T02:07:25;6.40;99.90
52495;DHT22;38405;53.212;5.660;2024-02-04T02:09:53;6.60;99.90
52495;DHT22;38405;53.212;5.660;2024-02-04T02:12:24;6.50;99.90
52495;DHT22;38405;53.212;5.660;2024-02-04T02:15:01;6.40;99.90
52495;DHT22;38405;53.212;5.660;2024-02-04T02:17:55;6.40;99.90
52495;DHT22;38405;53.212;5.660;2024-02-04T02:20:30;6.50;99.90
52495;DHT22;38405;53.212;5.660;2024-02-04T02:23:06;6.50;99.90
52495;DHT22;38405;53.212;5.660;2024-02-04T02:25:34;6.40;99.90
52495;DHT22;38405;53.212;5.660;2024-02-04T02:28:01;6.40;99.90
52495;DHT22;38405;53.212;5.660;2024-02-04T02:30:27;6.40;99.90
52495;DHT22;38405;53.212;5.660;2024-02-04T02:32:53;6.30;99.90
52495;DHT22;38405;53.212;5.660;2024-02-04T02:35:19;6.50;99.90
52495;DHT22;38405;53.212;5.660;2024-02-04T02:38:08;6.30;99.90
52495;DHT22;38405;53.212;5.660;2024-02-04T02:40:41;6.30;99.90
52495;DHT22;38405;53.212;5.660;2024-02-04T02:43:10;6.50;99.90
52495;DHT22;38405;53.212;5.660;2024-02-04T02:45:39;6.20;99.90
52495;DHT22;38405;53.212;5.660;2024-02-04T02:48:06;6.20;99.90
52495;DHT22;38405;53.212;5.660;2024-02-04T02:50:34;6.30;99.90
52495;DHT22;38405;53.212;5.660;2024-02-04T02:53:00;6.10;99.90
52495;DHT22;38405;53.212;5.660;2024-02-04T02:55:26;6.20;99.90
52495;DHT22;38405;53.212;5.660;2024-02-04T02:57:51;6.30;99.90
52495;DHT22;38405;53.212;5.660;2024-02-04T03:00:17;6.10;99.90
52495;DHT22;38405;53.212;5.660;2024-02-04T03:02:43;6.30;99.90
52495;DHT22;38405;53.212;5.660;2024-02-04T03:05:09;6.20;99.90
52495;DHT22;38405;53.212;5.660;2024-02-04T03:07:35;6.20;99.90
52495;DHT22;38405;53.212;5.660;2024-02-04T03:10:01;6.30;99.90
52495;DHT22;38405;53.212;5.660;2024-02-04T03:12:26;6.20;99.90
52495;DHT22;38405;53.212;5.660;2024-02-04T03:14:52;6.30;99.90
52495;DHT22;38405;53.212;5.660;2024-02-04T03:17:17;6.20;99.90
52495;DHT22;38405;53.212;5.660;2024-02-04T03:19:48;6.40;99.90
52495;DHT22;38405;53.212;5.660;2024-02-04T03:22:14;6.30;99.90
52495;DHT22;38405;53.212;5.660;2024-02-04T03:24:40;6.50;99.90
52495;DHT22;38405;53.212;5.660;2024-02-04T03:27:06;6.50;99.90
52495;DHT22;38405;53.212;5.660;2024-02-04T03:29:31;6.70;99.90
52495;DHT22;38405;53.212;5.660;2024-02-04T03:31:57;6.60;99.90
52495;DHT22;38405;53.212;5.660;2024-02-04T03:34:23;6.40;99.90
52495;DHT22;38405;53.212;5.660;2024-02-04T03:36:48;6.50;99.90
52495;DHT22;38405;53.212;5.660;2024-02-04T03:39:14;6.50;99.90
52495;DHT22;38405;53.212;5.660;2024-02-04T03:41:39;6.60;99.90
52495;DHT22;38405;53.212;5.660;2024-02-04T03:44:05;6.70;99.90
52495;DHT22;38405;53.212;5.660;2024-02-04T03:46:31;6.60;99.90
52495;DHT22;38405;53.212;5.660;2024-02-04T03:48:56;6.60;99.90
52495;DHT22;38405;53.212;5.660;2024-02-04T03:51:22;6.70;99.90
52495;DHT22;38405;53.212;5.660;2024-02-04T03:53:50;6.60;99.90
52495;DHT22;38405;53.212;5.660;2024-02-04T03:56:15;6.70;99.90
52495;DHT22;38405;53.212;5.660;2024-02-04T03:58:41;6.60;99.90
52495;DHT22;38405;53.212;5.660;2024-02-04T04:01:10;6.60;99.90
52495;DHT22;38405;53.212;5.660;2024-02-04T04:03:39;6.60;99.90
52495;DHT22;38405;53.212;5.660;2024-02-04T04:06:05;6.60;99.90
52495;DHT22;38405;53.212;5.660;2024-02-04T04:08:31;6.60;99.90
52495;DHT22;38405;53.212;5.660;2024-02-04T04:10:57;6.70;99.90
52495;DHT22;38405;53.212;5.660;2024-02-04T04:13:23;6.60;99.90
52495;DHT22;38405;53.212;5.660;2024-02-04T04:15:50;6.80;99.90
52495;DHT22;38405;53.212;5.660;2024-02-04T04:18:16;6.70;99.90
52495;DHT22;38405;53.212;5.660;2024-02-04T04:20:41;6.60;99.90
52495;DHT22;38405;53.212;5.660;2024-02-04T04:23:07;6.70;99.90
52495;DHT22;38405;53.212;5.660;2024-02-04T04:25:32;6.80;99.90
52495;DHT22;38405;53.212;5.660;2024-02-04T04:27:58;6.80;99.90
52495;DHT22;38405;53.212;5.660;2024-02-04T04:30:24;6.80;99.90
52495;DHT22;38405;53.212;5.660;2024-02-04T04:32:50;6.70;99.90
52495;DHT22;38405;53.212;5.660;2024-02-04T04:35:15;6.80;99.90
52495;DHT22;38405;53.212;5.660;2024-02-04T04:37:41;6.70;99.90
52495;DHT22;38405;53.212;5.660;2024-02-04T04:40:07;6.80;99.90
52495;DHT22;38405;53.212;5.660;2024-02-04T04:42:33;6.70;99.90
52495;DHT22;38405;53.212;5.660;2024-02-04T04:44:59;6.80;99.90
52495;DHT22;38405;53.212;5.660;2024-02-04T04:47:24;6.90;99.90
52495;DHT22;38405;53.212;5.660;2024-02-04T04:49:50;6.70;99.90
52495;DHT22;38405;53.212;5.660;2024-02-04T04:52:16;6.80;99.90
52495;DHT22;38405;53.212;5.660;2024-02-04T04:54:42;6.80;99.90
52495;DHT22;38405;53.212;5.660;2024-02-04T04:57:08;6.70;99.90
52495;DHT22;38405;53.212;5.660;2024-02-04T04:59:33;7.10;99.90
52495;DHT22;38405;53.212;5.660;2024-02-04T05:02:01;6.80;99.90
52495;DHT22;38405;53.212;5.660;2024-02-04T05:04:27;6.70;99.90
52495;DHT22;38405;53.212;5.660;2024-02-04T05:06:53;6.70;99.90
52495;DHT22;38405;53.212;5.660;2024-02-04T05:09:18;6.80;99.90
52495;DHT22;38405;53.212;5.660;2024-02-04T05:11:44;6.80;99.90
52495;DHT22;38405;53.212;5.660;2024-02-04T05:14:10;6.80;99.90
52495;DHT22;38405;53.212;5.660;2024-02-04T05:16:35;6.70;99.90
52495;DHT22;38405;53.212;5.660;2024-02-04T05:19:02;6.80;99.90
52495;DHT22;38405;53.212;5.660;2024-02-04T05:21:28;6.80;99.90
52495;DHT22;38405;53.212;5.660;2024-02-04T05:23:54;6.90;99.90
52495;DHT22;38405;53.212;5.660;2024-02-04T05:26:20;6.90;99.90
52495;DHT22;38405;53.212;5.660;2024-02-04T05:28:45;6.90;99.90
52495;DHT22;38405;53.212;5.660;2024-02-04T05:31:11;7.00;99.90
52495;DHT22;38405;53.212;5.660;2024-02-04T05:33:37;6.90;99.90
52495;DHT22;38405;53.212;5.660;2024-02-04T05:36:03;7.00;99.90
52495;DHT22;38405;53.212;5.660;2024-02-04T05:38:30;6.90;99.90
52495;DHT22;38405;53.212;5.660;2024-02-04T05:40:55;7.00;99.90
52495;DHT22;38405;53.212;5.660;2024-02-04T05:43:21;7.00;99.90
52495;DHT22;38405;53.212;5.660;2024-02-04T05:45:47;7.00;99.90
52495;DHT22;38405;53.212;5.660;2024-02-04T05:48:12;7.00;99.90
52495;DHT22;38405;53.212;5.660;2024-02-04T05:50:39;6.90;99.90
52495;DHT22;38405;53.212;5.660;2024-02-04T05:53:04;6.90;99.90
52495;DHT22;38405;53.212;5.660;2024-02-04T05:55:30;7.00;99.90
52495;DHT22;38405;53.212;5.660;2024-02-04T05:57:56;7.00;99.90
52495;DHT22;38405;53.212;5.660;2024-02-04T06:00:22;7.00;99.90
52495;DHT22;38405;53.212;5.660;2024-02-04T06:02:48;7.10;99.90
52495;DHT22;38405;53.212;5.660;2024-02-04T06:05:14;7.10;99.90
52495;DHT22;38405;53.212;5.660;2024-02-04T06:07:42;7.20;99.90
52495;DHT22;38405;53.212;5.660;2024-02-04T06:10:11;7.20;99.90
52495;DHT22;38405;53.212;5.660;2024-02-04T06:12:37;7.20;99.90
52495;DHT22;38405;53.212;5.660;2024-02-04T06:15:04;7.30;99.90
52495;DHT22;38405;53.212;5.660;2024-02-04T06:17:29;7.30;99.90
52495;DHT22;38405;53.212;5.660;2024-02-04T06:19:55;7.30;99.90
52495;DHT22;38405;53.212;5.660;2024-02-04T06:22:22;7.30;99.90
52495;DHT22;38405;53.212;5.660;2024-02-04T06:24:48;7.30;99.90
52495;DHT22;38405;53.212;5.660;2024-02-04T06:27:14;7.40;99.90
52495;DHT22;38405;53.212;5.660;2024-02-04T06:29:39;7.40;99.90
52495;DHT22;38405;53.212;5.660;2024-02-04T06:32:05;7.40;99.90
52495;DHT22;38405;53.212;5.660;2024-02-04T06:34:31;7.40;99.90
52495;DHT22;38405;53.212;5.660;2024-02-04T06:36:57;7.40;99.90
52495;DHT22;38405;53.212;5.660;2024-02-04T06:39:22;7.40;99.90
52495;DHT22;38405;53.212;5.660;2024-02-04T06:41:48;7.40;99.90
52495;DHT22;38405;53.212;5.660;2024-02-04T06:44:14;7.40;99.90
52495;DHT22;38405;53.212;5.660;2024-02-04T06:46:40;7.40;99.90
52495;DHT22;38405;53.212;5.660;2024-02-04T06:49:06;7.40;99.90
52495;DHT22;38405;53.212;5.660;2024-02-04T06:51:32;7.40;99.90
52495;DHT22;38405;53.212;5.660;2024-02-04T06:53:58;7.40;99.90
52495;DHT22;38405;53.212;5.660;2024-02-04T06:56:23;7.40;99.90
52495;DHT22;38405;53.212;5.660;2024-02-04T06:58:49;7.30;99.90
52495;DHT22;38405;53.212;5.660;2024-02-04T07:01:15;7.20;99.90
52495;DHT22;38405;53.212;5.660;2024-02-04T07:03:40;7.20;99.90
52495;DHT22;38405;53.212;5.660;2024-02-04T07:06:06;7.30;99.90
52495;DHT22;38405;53.212;5.660;2024-02-04T07:08:32;7.20;99.90
52495;DHT22;38405;53.212;5.660;2024-02-04T07:10:57;7.10;99.90
52495;DHT22;38405;53.212;5.660;2024-02-04T07:13:23;7.10;99.90
52495;DHT22;38405;53.212;5.660;2024-02-04T07:15:49;7.10;99.90
52495;DHT22;38405;53.212;5.660;2024-02-04T07:18:14;7.10;99.90
52495;DHT22;38405;53.212;5.660;2024-02-04T07:20:41;7.00;99.90
52495;DHT22;38405;53.212;5.660;2024-02-04T07:23:07;7.10;99.90
52495;DHT22;38405;53.212;5.660;2024-02-04T07:25:32;7.00;99.90
52495;DHT22;38405;53.212;5.660;2024-02-04T07:28:00;7.10;99.90
52495;DHT22;38405;53.212;5.660;2024-02-04T07:30:25;7.10;99.90
52495;DHT22;38405;53.212;5.660;2024-02-04T07:32:51;7.10;99.90
52495;DHT22;38405;53.212;5.660;2024-02-04T07:35:17;7.10;99.90
52495;DHT22;38405;53.212;5.660;2024-02-04T07:37:42;7.20;99.90
52495;DHT22;38405;53.212;5.660;2024-02-04T07:40:08;7.10;99.90
52495;DHT22;38405;53.212;5.660;2024-02-04T07:42:34;7.10;99.90
52495;DHT22;38405;53.212;5.660;2024-02-04T07:44:59;7.30;99.90
52495;DHT22;38405;53.212;5.660;2024-02-04T07:47:26;7.20;99.90
52495;DHT22;38405;53.212;5.660;2024-02-04T07:49:52;7.30;99.90
52495;DHT22;38405;53.212;5.660;2024-02-04T07:52:18;7.30;99.90
52495;DHT22;38405;53.212;5.660;2024-02-04T07:54:43;7.30;99.90
52495;DHT22;38405;53.212;5.660;2024-02-04T07:57:09;7.40;99.90
52495;DHT22;38405;53.212;5.660;2024-02-04T07:59:35;7.40;99.90
52495;DHT22;38405;53.212;5.660;2024-02-04T08:02:01;7.40;99.90
52495;DHT22;38405;53.212;5.660;2024-02-04T08:04:27;7.40;99.90
52495;DHT22;38405;53.212;5.660;2024-02-04T08:06:54;7.40;99.90
52495;DHT22;38405;53.212;5.660;2024-02-04T08:09:19;7.50;99.90
52495;DHT22;38405;53.212;5.660;2024-02-04T08:11:46;7.50;99.90
52495;DHT22;38405;53.212;5.660;2024-02-04T08:14:12;7.50;99.90
52495;DHT22;38405;53.212;5.660;2024-02-04T08:16:39;7.60;99.90
52495;DHT22;38405;53.212;5.660;2024-02-04T08:19:06;7.50;99.90
52495;DHT22;38405;53.212;5.660;2024-02-04T08:21:32;7.60;99.90
52495;DHT22;38405;53.212;5.660;2024-02-04T08:23:58;7.60;99.90
52495;DHT22;38405;53.212;5.660;2024-02-04T08:26:24;7.60;99.90
52495;DHT22;38405;53.212;5.660;2024-02-04T08:28:50;7.60;99.90
52495;DHT22;38405;53.212;5.660;2024-02-04T08:31:15;7.70;99.90
52495;DHT22;38405;53.212;5.660;2024-02-04T08:33:41;7.70;99.90
52495;DHT22;38405;53.212;5.660;2024-02-04T08:36:07;7.70;99.90
52495;DHT22;38405;53.212;5.660;2024-02-04T08:38:36;7.80;99.90
52495;DHT22;38405;53.212;5.660;2024-02-04T08:41:02;7.80;99.90
52495;DHT22;38405;53.212;5.660;2024-02-04T08:43:28;7.80;99.90
52495;DHT22;38405;53.212;5.660;2024-02-04T08:45:54;7.80;99.90
52495;DHT22;38405;53.212;5.660;2024-02-04T08:48:19;7.90;99.90
52495;DHT22;38405;53.212;5.660;2024-02-04T08:50:45;7.90;99.90
52495;DHT22;38405;53.212;5.660;2024-02-04T08:53:10;8.00;99.90
52495;DHT22;38405;53.212;5.660;2024-02-04T08:55:36;7.90;99.90
52495;DHT22;38405;53.212;5.660;2024-02-04T08:58:02;7.90;99.90
52495;DHT22;38405;53.212;5.660;2024-02-04T09:00:27;7.90;99.90
52495;DHT22;38405;53.212;5.660;2024-02-04T09:02:53;8.00;99.90
52495;DHT22;38405;53.212;5.660;2024-02-04T09:05:18;8.00;99.90
52495;DHT22;38405;53.212;5.660;2024-02-04T09:07:46;8.00;99.90
52495;DHT22;38405;53.212;5.660;2024-02-04T09:10:11;8.10;99.90
52495;DHT22;38405;53.212;5.660;2024-02-04T09:12:40;8.10;99.90
52495;DHT22;38405;53.212;5.660;2024-02-04T09:15:06;8.20;99.90
52495;DHT22;38405;53.212;5.660;2024-02-04T09:17:32;8.30;99.90
52495;DHT22;38405;53.212;5.660;2024-02-04T09:20:01;8.60;99.90
52495;DHT22;38405;53.212;5.660;2024-02-04T09:22:27;8.50;99.90
52495;DHT22;38405;53.212;5.660;2024-02-04T09:24:53;8.50;99.90
52495;DHT22;38405;53.212;5.660;2024-02-04T09:27:18;8.70;99.90
52495;DHT22;38405;53.212;5.660;2024-02-04T09:29:44;8.50;99.90
52495;DHT22;38405;53.212;5.660;2024-02-04T09:32:09;8.60;99.90
52495;DHT22;38405;53.212;5.660;2024-02-04T09:34:35;8.50;99.90
52495;DHT22;38405;53.212;5.660;2024-02-04T09:37:01;8.40;99.90
52495;DHT22;38405;53.212;5.660;2024-02-04T09:39:28;8.90;99.90
52495;DHT22;38405;53.212;5.660;2024-02-04T09:41:55;8.50;99.90
52495;DHT22;38405;53.212;5.660;2024-02-04T09:44:22;8.70;99.90
52495;DHT22;38405;53.212;5.660;2024-02-04T09:46:48;8.90;99.90
52495;DHT22;38405;53.212;5.660;2024-02-04T09:49:13;9.00;99.90
52495;DHT22;38405;53.212;5.660;2024-02-04T09:51:40;9.20;99.90
52495;DHT22;38405;53.212;5.660;2024-02-04T09:54:09;9.20;99.90
52495;DHT22;38405;53.212;5.660;2024-02-04T09:56:37;9.50;99.90
52495;DHT22;38405;53.212;5.660;2024-02-04T09:59:04;9.40;99.90
52495;DHT22;38405;53.212;5.660;2024-02-04T10:01:33;9.40;99.90
52495;DHT22;38405;53.212;5.660;2024-02-04T10:04:01;9.30;99.90
52495;DHT22;38405;53.212;5.660;2024-02-04T10:06:27;9.20;99.90
52495;DHT22;38405;53.212;5.660;2024-02-04T10:08:53;9.30;99.90
52495;DHT22;38405;53.212;5.660;2024-02-04T10:11:18;9.30;99.90
52495;DHT22;38405;53.212;5.660;2024-02-04T10:13:45;9.30;99.90
52495;DHT22;38405;53.212;5.660;2024-02-04T10:16:16;9.30;99.90
52495;DHT22;38405;53.212;5.660;2024-02-04T10:18:45;9.20;99.90
52495;DHT22;38405;53.212;5.660;2024-02-04T10:21:21;9.30;99.90
52495;DHT22;38405;53.212;5.660;2024-02-04T10:23:49;9.40;99.90
52495;DHT22;38405;53.212;5.660;2024-02-04T10:26:15;9.30;99.90
52495;DHT22;38405;53.212;5.660;2024-02-04T10:28:41;9.30;99.90
52495;DHT22;38405;53.212;5.660;2024-02-04T10:31:10;9.20;99.90
52495;DHT22;38405;53.212;5.660;2024-02-04T10:33:36;9.20;99.90
52495;DHT22;38405;53.212;5.660;2024-02-04T10:36:03;9.20;99.90
52495;DHT22;38405;53.212;5.660;2024-02-04T10:38:29;9.30;99.90
52495;DHT22;38405;53.212;5.660;2024-02-04T10:40:55;9.30;99.90
52495;DHT22;38405;53.212;5.660;2024-02-04T10:43:21;9.30;99.90
52495;DHT22;38405;53.212;5.660;2024-02-04T10:45:48;9.30;99.90
52495;DHT22;38405;53.212;5.660;2024-02-04T10:48:19;9.30;99.90
52495;DHT22;38405;53.212;5.660;2024-02-04T10:50:46;9.30;99.90
52495;DHT22;38405;53.212;5.660;2024-02-04T10:53:14;9.20;99.90
52495;DHT22;38405;53.212;5.660;2024-02-04T10:55:46;9.40;99.90
52495;DHT22;38405;53.212;5.660;2024-02-04T10:58:13;9.20;99.90
52495;DHT22;38405;53.212;5.660;2024-02-04T11:00:43;9.40;99.90
52495;DHT22;38405;53.212;5.660;2024-02-04T11:03:09;9.20;99.90
52495;DHT22;38405;53.212;5.660;2024-02-04T11:05:36;9.30;99.90
52495;DHT22;38405;53.212;5.660;2024-02-04T11:08:04;9.20;99.90
52495;DHT22;38405;53.212;5.660;2024-02-04T11:10:31;9.20;99.90
52495;DHT22;38405;53.212;5.660;2024-02-04T11:12:59;9.10;99.90
52495;DHT22;38405;53.212;5.660;2024-02-04T11:15:30;9.20;99.90
52495;DHT22;38405;53.212;5.660;2024-02-04T11:26:17;9.20;99.90
52495;DHT22;38405;53.212;5.660;2024-02-04T11:28:43;9.20;99.90
52495;DHT22;38405;53.212;5.660;2024-02-04T11:31:17;9.20;99.90
52495;DHT22;38405;53.212;5.660;2024-02-04T11:33:43;9.40;99.90
52495;DHT22;38405;53.212;5.660;2024-02-04T11:36:14;9.40;99.90
52495;DHT22;38405;53.212;5.660;2024-02-04T11:38:40;9.30;99.90
52495;DHT22;38405;53.212;5.660;2024-02-04T11:41:07;9.30;99.90
52495;DHT22;38405;53.212;5.660;2024-02-04T11:43:34;9.30;99.90
52495;DHT22;38405;53.212;5.660;2024-02-04T11:46:04;9.30;99.90
52495;DHT22;38405;53.212;5.660;2024-02-04T11:48:30;9.30;99.90
52495;DHT22;38405;53.212;5.660;2024-02-04T11:50:58;9.30;99.90
52495;DHT22;38405;53.212;5.660;2024-02-04T11:53:25;9.30;99.90
52495;DHT22;38405;53.212;5.660;2024-02-04T11:55:55;9.30;99.90
52495;DHT22;38405;53.212;5.660;2024-02-04T11:58:21;9.20;99.90
52495;DHT22;38405;53.212;5.660;2024-02-04T12:00:48;9.20;99.90
52495;DHT22;38405;53.212;5.660;2024-02-04T12:03:15;9.20;99.90
52495;DHT22;38405;53.212;5.660;2024-02-04T12:05:41;9.30;99.90
52495;DHT22;38405;53.212;5.660;2024-02-04T12:08:08;9.20;99.90
52495;DHT22;38405;53.212;5.660;2024-02-04T12:10:35;9.20;99.90
52495;DHT22;38405;53.212;5.660;2024-02-04T12:13:05;9.20;99.90
52495;DHT22;38405;53.212;5.660;2024-02-04T12:15:35;9.40;99.90
52495;DHT22;38405;53.212;5.660;2024-02-04T12:20:32;9.10;99.90
52495;DHT22;38405;53.212;5.660;2024-02-04T12:22:58;9.10;99.90
52495;DHT22;38405;53.212;5.660;2024-02-04T12:25:24;9.00;99.90
52495;DHT22;38405;53.212;5.660;2024-02-04T12:27:53;9.00;99.90
52495;DHT22;38405;53.212;5.660;2024-02-04T12:30:18;9.10;99.90
52495;DHT22;38405;53.212;5.660;2024-02-04T12:32:44;9.10;99.90
52495;DHT22;38405;53.212;5.660;2024-02-04T12:35:16;9.10;99.90
52495;DHT22;38405;53.212;5.660;2024-02-04T12:37:51;9.10;99.90
52495;DHT22;38405;53.212;5.660;2024-02-04T12:40:30;9.10;99.90
52495;DHT22;38405;53.212;5.660;2024-02-04T12:45:23;9.20;99.90
52495;DHT22;38405;53.212;5.660;2024-02-04T12:47:54;9.20;99.90
52495;DHT22;38405;53.212;5.660;2024-02-04T12:50:20;9.10;99.90
52495;DHT22;38405;53.212;5.660;2024-02-04T12:53:09;9.10;99.90
52495;DHT22;38405;53.212;5.660;2024-02-04T12:55:37;9.10;99.90
52495;DHT22;38405;53.212;5.660;2024-02-04T13:00:36;8.90;99.90
52495;DHT22;38405;53.212;5.660;2024-02-04T13:03:03;9.00;99.90
52495;DHT22;38405;53.212;5.660;2024-02-04T13:05:29;8.90;99.90
52495;DHT22;38405;53.212;5.660;2024-02-04T13:07:59;8.90;99.90
52495;DHT22;38405;53.212;5.660;2024-02-04T13:10:30;8.90;99.90
52495;DHT22;38405;53.212;5.660;2024-02-04T13:13:07;8.90;99.90
52495;DHT22;38405;53.212;5.660;2024-02-04T13:15:43;8.90;99.90
52495;DHT22;38405;53.212;5.660;2024-02-04T13:18:10;8.90;99.90
52495;DHT22;38405;53.212;5.660;2024-02-04T13:20:37;8.80;99.90
52495;DHT22;38405;53.212;5.660;2024-02-04T13:23:05;9.00;99.90
52495;DHT22;38405;53.212;5.660;2024-02-04T13:25:31;8.80;99.90
52495;DHT22;38405;53.212;5.660;2024-02-04T13:27:57;8.80;99.90
52495;DHT22;38405;53.212;5.660;2024-02-04T13:30:23;8.80;99.90
52495;DHT22;38405;53.212;5.660;2024-02-04T13:32:49;9.10;99.90
52495;DHT22;38405;53.212;5.660;2024-02-04T13:35:18;8.80;99.90
52495;DHT22;38405;53.212;5.660;2024-02-04T13:37:46;8.90;99.90
52495;DHT22;38405;53.212;5.660;2024-02-04T13:40:17;8.80;99.90
52495;DHT22;38405;53.212;5.660;2024-02-04T13:42:43;8.90;99.90
52495;DHT22;38405;53.212;5.660;2024-02-04T13:45:09;8.80;99.90
52495;DHT22;38405;53.212;5.660;2024-02-04T13:47:35;8.90;99.90
52495;DHT22;38405;53.212;5.660;2024-02-04T13:50:01;8.80;99.90
52495;DHT22;38405;53.212;5.660;2024-02-04T13:52:28;9.00;99.90
52495;DHT22;38405;53.212;5.660;2024-02-04T13:54:53;8.80;99.90
52495;DHT22;38405;53.212;5.660;2024-02-04T13:57:19;8.70;99.90
52495;DHT22;38405;53.212;5.660;2024-02-04T13:59:45;8.80;99.90
52495;DHT22;38405;53.212;5.660;2024-02-04T14:02:10;9.10;99.90
52495;DHT22;38405;53.212;5.660;2024-02-04T14:04:36;9.10;99.90
52495;DHT22;38405;53.212;5.660;2024-02-04T14:07:02;8.80;99.90
52495;DHT22;38405;53.212;5.660;2024-02-04T14:09:28;8.70;99.90
52495;DHT22;38405;53.212;5.660;2024-02-04T14:11:54;8.90;99.90
52495;DHT22;38405;53.212;5.660;2024-02-04T14:14:23;8.70;99.90
52495;DHT22;38405;53.212;5.660;2024-02-04T14:16:49;8.90;99.90
52495;DHT22;38405;53.212;5.660;2024-02-04T14:19:16;8.80;99.90
52495;DHT22;38405;53.212;5.660;2024-02-04T14:21:42;8.90;99.90
52495;DHT22;38405;53.212;5.660;2024-02-04T14:24:08;9.00;99.90
52495;DHT22;38405;53.212;5.660;2024-02-04T14:26:34;8.90;99.90
52495;DHT22;38405;53.212;5.660;2024-02-04T14:29:00;9.00;99.90
52495;DHT22;38405;53.212;5.660;2024-02-04T14:31:25;8.90;99.90
52495;DHT22;38405;53.212;5.660;2024-02-04T14:33:51;9.00;99.90
52495;DHT22;38405;53.212;5.660;2024-02-04T14:36:17;8.90;99.90
52495;DHT22;38405;53.212;5.660;2024-02-04T14:38:42;9.00;99.90
52495;DHT22;38405;53.212;5.660;2024-02-04T14:41:08;8.80;99.90
52495;DHT22;38405;53.212;5.660;2024-02-04T14:43:35;9.00;99.90
52495;DHT22;38405;53.212;5.660;2024-02-04T14:46:01;9.00;99.90
52495;DHT22;38405;53.212;5.660;2024-02-04T14:48:27;9.00;99.90
52495;DHT22;38405;53.212;5.660;2024-02-04T14:50:52;9.10;99.90
52495;DHT22;38405;53.212;5.660;2024-02-04T14:53:19;8.90;99.90
52495;DHT22;38405;53.212;5.660;2024-02-04T14:55:45;9.10;99.90
52495;DHT22;38405;53.212;5.660;2024-02-04T14:58:10;9.00;99.90
52495;DHT22;38405;53.212;5.660;2024-02-04T15:00:36;8.90;99.90
52495;DHT22;38405;53.212;5.660;2024-02-04T15:03:02;8.90;99.90
52495;DHT22;38405;53.212;5.660;2024-02-04T15:05:27;9.10;99.90
52495;DHT22;38405;53.212;5.660;2024-02-04T15:07:53;9.00;99.90
52495;DHT22;38405;53.212;5.660;2024-02-04T15:10:20;9.00;99.90
52495;DHT22;38405;53.212;5.660;2024-02-04T15:12:46;9.10;99.90
52495;DHT22;38405;53.212;5.660;2024-02-04T15:15:12;8.90;99.90
52495;DHT22;38405;53.212;5.660;2024-02-04T15:17:38;9.10;99.90
52495;DHT22;38405;53.212;5.660;2024-02-04T15:20:04;8.80;99.90
52495;DHT22;38405;53.212;5.660;2024-02-04T15:22:30;8.80;99.90
52495;DHT22;38405;53.212;5.660;2024-02-04T15:24:56;8.80;99.90
52495;DHT22;38405;53.212;5.660;2024-02-04T15:27:24;9.00;99.90
52495;DHT22;38405;53.212;5.660;2024-02-04T15:29:54;8.70;99.90
52495;DHT22;38405;53.212;5.660;2024-02-04T15:32:20;9.00;99.90
52495;DHT22;38405;53.212;5.660;2024-02-04T15:34:47;9.00;99.90
52495;DHT22;38405;53.212;5.660;2024-02-04T15:37:13;9.00;99.90
52495;DHT22;38405;53.212;5.660;2024-02-04T15:39:39;8.90;99.90
52495;DHT22;38405;53.212;5.660;2024-02-04T15:42:05;8.90;99.90
52495;DHT22;38405;53.212;5.660;2024-02-04T15:44:31;8.90;99.90
52495;DHT22;38405;53.212;5.660;2024-02-04T15:46:59;8.70;99.90
52495;DHT22;38405;53.212;5.660;2024-02-04T15:49:28;9.10;99.90
52495;DHT22;38405;53.212;5.660;2024-02-04T15:51:54;8.80;99.90
52495;DHT22;38405;53.212;5.660;2024-02-04T15:54:20;9.10;99.90
52495;DHT22;38405;53.212;5.660;2024-02-04T15:56:59;9.10;99.90